Chabas, Argentina
Current Conditions -  °F | °C
As of 4:00 PM on Friday 28 Nov 2014 (Local Time) from SAAR Reporting Station
Clear Clear  
Wind Chill: 86°   Ceiling: Unl
Heat Index: 86°   Visibility: 6mi
Dew Point: 57°   Wind: 15mph
Humidity: 37%   Direction: 50°NE
Pressure: 29.83"   Gusts: NA
Location:  33.25°S, 61.37°W
Report Text: SAAR 281900Z 05013KT CAVOK 30/14 Q1010
Loading
Personal Weather Stations






























Interactive Weather Map New forecast layout! Learn more

10-Day Weather Forecast

Advertisements
Track Severe Weather on mobile